sensor_id;sensor_type;location;lat;lon;timestamp;P1;durP1;ratioP1;P2;durP2;ratioP2
58784;SDS011;44557;51.862;19.378;2023-04-03T00:01:05;6.60;;;2.30;;
58784;SDS011;44557;51.862;19.378;2023-04-03T00:03:07;6.00;;;2.00;;
58784;SDS011;44557;51.862;19.378;2023-04-03T00:05:08;5.80;;;2.30;;
58784;SDS011;44557;51.862;19.378;2023-04-03T00:07:08;5.60;;;2.10;;
58784;SDS011;44557;51.862;19.378;2023-04-03T00:09:09;4.60;;;2.20;;
58784;SDS011;44557;51.862;19.378;2023-04-03T00:11:11;6.80;;;2.30;;
58784;SDS011;44557;51.862;19.378;2023-04-03T00:13:12;7.50;;;2.80;;
58784;SDS011;44557;51.862;19.378;2023-04-03T00:15:13;5.60;;;2.20;;
58784;SDS011;44557;51.862;19.378;2023-04-03T00:17:14;6.30;;;2.50;;
58784;SDS011;44557;51.862;19.378;2023-04-03T00:19:15;6.70;;;2.40;;
58784;SDS011;44557;51.862;19.378;2023-04-03T00:21:16;6.50;;;2.50;;
58784;SDS011;44557;51.862;19.378;2023-04-03T00:23:16;6.30;;;2.80;;
58784;SDS011;44557;51.862;19.378;2023-04-03T00:25:17;5.90;;;2.20;;
58784;SDS011;44557;51.862;19.378;2023-04-03T00:27:18;5.10;;;2.10;;
58784;SDS011;44557;51.862;19.378;2023-04-03T00:29:19;5.40;;;2.60;;
58784;SDS011;44557;51.862;19.378;2023-04-03T00:31:20;6.50;;;2.70;;
58784;SDS011;44557;51.862;19.378;2023-04-03T00:33:21;7.30;;;2.60;;
58784;SDS011;44557;51.862;19.378;2023-04-03T00:35:22;7.50;;;3.00;;
58784;SDS011;44557;51.862;19.378;2023-04-03T00:37:24;7.80;;;2.80;;
58784;SDS011;44557;51.862;19.378;2023-04-03T00:39:25;6.50;;;2.20;;
58784;SDS011;44557;51.862;19.378;2023-04-03T00:41:26;7.30;;;2.70;;
58784;SDS011;44557;51.862;19.378;2023-04-03T00:43:27;5.80;;;2.60;;
58784;SDS011;44557;51.862;19.378;2023-04-03T00:45:33;6.90;;;2.40;;
58784;SDS011;44557;51.862;19.378;2023-04-03T00:47:39;5.50;;;2.20;;
58784;SDS011;44557;51.862;19.378;2023-04-03T00:49:41;6.10;;;2.30;;
58784;SDS011;44557;51.862;19.378;2023-04-03T00:51:43;7.10;;;2.40;;
58784;SDS011;44557;51.862;19.378;2023-04-03T00:53:49;7.60;;;2.50;;
58784;SDS011;44557;51.862;19.378;2023-04-03T00:55:53;5.60;;;2.50;;
58784;SDS011;44557;51.862;19.378;2023-04-03T00:57:56;6.50;;;2.60;;
58784;SDS011;44557;51.862;19.378;2023-04-03T00:59:59;5.70;;;2.50;;
58784;SDS011;44557;51.862;19.378;2023-04-03T01:02:09;7.70;;;2.60;;
58784;SDS011;44557;51.862;19.378;2023-04-03T01:04:30;6.60;;;2.60;;
58784;SDS011;44557;51.862;19.378;2023-04-03T01:06:33;6.30;;;2.30;;
58784;SDS011;44557;51.862;19.378;2023-04-03T01:08:37;6.90;;;2.60;;
58784;SDS011;44557;51.862;19.378;2023-04-03T01:10:39;5.00;;;2.30;;
58784;SDS011;44557;51.862;19.378;2023-04-03T01:12:40;9.00;;;2.50;;
58784;SDS011;44557;51.862;19.378;2023-04-03T01:14:47;7.50;;;2.70;;
58784;SDS011;44557;51.862;19.378;2023-04-03T01:16:53;6.70;;;2.60;;
58784;SDS011;44557;51.862;19.378;2023-04-03T01:18:55;6.00;;;2.50;;
58784;SDS011;44557;51.862;19.378;2023-04-03T01:21:05;7.30;;;2.50;;
58784;SDS011;44557;51.862;19.378;2023-04-03T01:23:55;7.00;;;2.40;;
58784;SDS011;44557;51.862;19.378;2023-04-03T01:26:09;6.30;;;2.50;;
58784;SDS011;44557;51.862;19.378;2023-04-03T01:28:16;6.40;;;2.20;;
58784;SDS011;44557;51.862;19.378;2023-04-03T01:30:28;9.00;;;3.10;;
58784;SDS011;44557;51.862;19.378;2023-04-03T01:32:32;8.10;;;2.90;;
58784;SDS011;44557;51.862;19.378;2023-04-03T01:34:33;7.40;;;3.00;;
58784;SDS011;44557;51.862;19.378;2023-04-03T01:36:34;6.80;;;2.40;;
58784;SDS011;44557;51.862;19.378;2023-04-03T01:38:35;8.40;;;2.40;;
58784;SDS011;44557;51.862;19.378;2023-04-03T01:40:36;7.50;;;2.80;;
58784;SDS011;44557;51.862;19.378;2023-04-03T01:42:38;8.30;;;2.60;;
58784;SDS011;44557;51.862;19.378;2023-04-03T01:44:39;5.30;;;2.20;;
58784;SDS011;44557;51.862;19.378;2023-04-03T01:46:40;6.80;;;2.60;;
58784;SDS011;44557;51.862;19.378;2023-04-03T01:48:42;6.20;;;2.50;;
58784;SDS011;44557;51.862;19.378;2023-04-03T01:50:43;7.10;;;2.70;;
58784;SDS011;44557;51.862;19.378;2023-04-03T01:52:44;6.10;;;2.50;;
58784;SDS011;44557;51.862;19.378;2023-04-03T01:54:45;6.40;;;2.70;;
58784;SDS011;44557;51.862;19.378;2023-04-03T01:56:46;8.20;;;2.70;;
58784;SDS011;44557;51.862;19.378;2023-04-03T01:58:47;9.10;;;2.60;;
58784;SDS011;44557;51.862;19.378;2023-04-03T02:00:48;6.80;;;2.60;;
58784;SDS011;44557;51.862;19.378;2023-04-03T02:02:49;7.30;;;2.80;;
58784;SDS011;44557;51.862;19.378;2023-04-03T02:04:50;5.50;;;2.30;;
58784;SDS011;44557;51.862;19.378;2023-04-03T02:06:51;6.70;;;2.40;;
58784;SDS011;44557;51.862;19.378;2023-04-03T02:08:52;6.80;;;2.60;;
58784;SDS011;44557;51.862;19.378;2023-04-03T02:10:53;7.80;;;2.40;;
58784;SDS011;44557;51.862;19.378;2023-04-03T02:12:54;6.10;;;2.30;;
58784;SDS011;44557;51.862;19.378;2023-04-03T02:14:54;7.80;;;2.90;;
58784;SDS011;44557;51.862;19.378;2023-04-03T02:16:55;6.50;;;2.40;;
58784;SDS011;44557;51.862;19.378;2023-04-03T02:18:56;6.20;;;2.40;;
58784;SDS011;44557;51.862;19.378;2023-04-03T02:20:57;7.30;;;2.40;;
58784;SDS011;44557;51.862;19.378;2023-04-03T02:22:58;6.90;;;2.70;;
58784;SDS011;44557;51.862;19.378;2023-04-03T02:25:00;5.30;;;2.40;;
58784;SDS011;44557;51.862;19.378;2023-04-03T02:27:01;6.90;;;3.00;;
58784;SDS011;44557;51.862;19.378;2023-04-03T02:29:02;5.70;;;2.60;;
58784;SDS011;44557;51.862;19.378;2023-04-03T02:31:03;6.60;;;2.70;;
58784;SDS011;44557;51.862;19.378;2023-04-03T02:33:06;7.30;;;2.60;;
58784;SDS011;44557;51.862;19.378;2023-04-03T02:35:07;5.80;;;2.70;;
58784;SDS011;44557;51.862;19.378;2023-04-03T02:37:09;7.20;;;3.10;;
58784;SDS011;44557;51.862;19.378;2023-04-03T02:39:10;6.70;;;2.80;;
58784;SDS011;44557;51.862;19.378;2023-04-03T02:41:12;8.80;;;2.80;;
58784;SDS011;44557;51.862;19.378;2023-04-03T02:43:13;6.70;;;2.90;;
58784;SDS011;44557;51.862;19.378;2023-04-03T02:45:14;8.10;;;2.50;;
58784;SDS011;44557;51.862;19.378;2023-04-03T02:47:15;7.10;;;3.10;;
58784;SDS011;44557;51.862;19.378;2023-04-03T02:49:16;8.40;;;2.60;;
58784;SDS011;44557;51.862;19.378;2023-04-03T02:51:17;6.50;;;3.30;;
58784;SDS011;44557;51.862;19.378;2023-04-03T02:53:18;6.10;;;2.40;;
58784;SDS011;44557;51.862;19.378;2023-04-03T02:55:19;7.60;;;2.70;;
58784;SDS011;44557;51.862;19.378;2023-04-03T02:57:20;5.50;;;2.30;;
58784;SDS011;44557;51.862;19.378;2023-04-03T02:59:21;6.70;;;2.90;;
58784;SDS011;44557;51.862;19.378;2023-04-03T03:01:22;7.20;;;2.80;;
58784;SDS011;44557;51.862;19.378;2023-04-03T03:03:23;6.20;;;2.50;;
58784;SDS011;44557;51.862;19.378;2023-04-03T03:05:25;9.20;;;3.20;;
58784;SDS011;44557;51.862;19.378;2023-04-03T03:07:26;6.40;;;2.60;;
58784;SDS011;44557;51.862;19.378;2023-04-03T03:09:27;6.90;;;2.80;;
58784;SDS011;44557;51.862;19.378;2023-04-03T03:11:28;7.30;;;2.80;;
58784;SDS011;44557;51.862;19.378;2023-04-03T03:13:29;6.80;;;2.80;;
58784;SDS011;44557;51.862;19.378;2023-04-03T03:15:30;5.70;;;3.10;;
58784;SDS011;44557;51.862;19.378;2023-04-03T03:17:31;7.70;;;2.50;;
58784;SDS011;44557;51.862;19.378;2023-04-03T03:19:32;6.70;;;3.10;;
58784;SDS011;44557;51.862;19.378;2023-04-03T03:21:32;5.80;;;2.80;;
58784;SDS011;44557;51.862;19.378;2023-04-03T03:23:33;7.10;;;2.90;;
58784;SDS011;44557;51.862;19.378;2023-04-03T03:25:38;7.00;;;3.00;;
58784;SDS011;44557;51.862;19.378;2023-04-03T03:27:41;7.90;;;3.90;;
58784;SDS011;44557;51.862;19.378;2023-04-03T03:29:42;7.50;;;3.30;;
58784;SDS011;44557;51.862;19.378;2023-04-03T03:31:43;5.40;;;2.60;;
58784;SDS011;44557;51.862;19.378;2023-04-03T03:33:44;5.80;;;2.80;;
58784;SDS011;44557;51.862;19.378;2023-04-03T03:35:45;6.50;;;2.70;;
58784;SDS011;44557;51.862;19.378;2023-04-03T03:37:46;7.30;;;3.00;;
58784;SDS011;44557;51.862;19.378;2023-04-03T03:39:47;6.50;;;3.20;;
58784;SDS011;44557;51.862;19.378;2023-04-03T03:41:48;7.00;;;3.00;;
58784;SDS011;44557;51.862;19.378;2023-04-03T03:43:50;7.40;;;3.50;;
58784;SDS011;44557;51.862;19.378;2023-04-03T03:45:51;6.30;;;2.70;;
58784;SDS011;44557;51.862;19.378;2023-04-03T03:47:53;6.10;;;3.20;;
58784;SDS011;44557;51.862;19.378;2023-04-03T03:49:54;8.80;;;3.90;;
58784;SDS011;44557;51.862;19.378;2023-04-03T03:51:55;8.20;;;3.80;;
58784;SDS011;44557;51.862;19.378;2023-04-03T03:53:56;9.60;;;3.50;;
58784;SDS011;44557;51.862;19.378;2023-04-03T03:55:57;6.30;;;3.10;;
58784;SDS011;44557;51.862;19.378;2023-04-03T03:57:57;6.50;;;3.20;;
58784;SDS011;44557;51.862;19.378;2023-04-03T03:59:58;6.70;;;3.20;;
58784;SDS011;44557;51.862;19.378;2023-04-03T04:01:59;5.40;;;2.80;;
58784;SDS011;44557;51.862;19.378;2023-04-03T04:04:00;8.20;;;3.10;;
58784;SDS011;44557;51.862;19.378;2023-04-03T04:06:01;8.80;;;3.30;;
58784;SDS011;44557;51.862;19.378;2023-04-03T04:08:02;6.20;;;3.30;;
58784;SDS011;44557;51.862;19.378;2023-04-03T04:10:03;6.00;;;3.10;;
58784;SDS011;44557;51.862;19.378;2023-04-03T04:12:05;7.20;;;3.40;;
58784;SDS011;44557;51.862;19.378;2023-04-03T04:14:06;7.60;;;3.30;;
58784;SDS011;44557;51.862;19.378;2023-04-03T04:16:07;7.40;;;3.20;;
58784;SDS011;44557;51.862;19.378;2023-04-03T04:18:08;6.30;;;3.20;;
58784;SDS011;44557;51.862;19.378;2023-04-03T04:20:09;6.80;;;3.40;;
58784;SDS011;44557;51.862;19.378;2023-04-03T04:22:10;7.00;;;3.40;;
58784;SDS011;44557;51.862;19.378;2023-04-03T04:24:11;7.80;;;3.50;;
58784;SDS011;44557;51.862;19.378;2023-04-03T04:26:12;7.50;;;3.40;;
58784;SDS011;44557;51.862;19.378;2023-04-03T04:28:13;8.90;;;3.30;;
58784;SDS011;44557;51.862;19.378;2023-04-03T04:30:15;7.40;;;3.30;;
58784;SDS011;44557;51.862;19.378;2023-04-03T04:32:16;7.00;;;3.20;;
58784;SDS011;44557;51.862;19.378;2023-04-03T04:34:17;8.10;;;3.50;;
58784;SDS011;44557;51.862;19.378;2023-04-03T04:36:18;6.50;;;3.40;;
58784;SDS011;44557;51.862;19.378;2023-04-03T04:38:19;9.00;;;4.00;;
58784;SDS011;44557;51.862;19.378;2023-04-03T04:40:20;6.90;;;3.40;;
58784;SDS011;44557;51.862;19.378;2023-04-03T04:42:21;7.20;;;3.80;;
58784;SDS011;44557;51.862;19.378;2023-04-03T04:44:22;7.90;;;4.00;;
58784;SDS011;44557;51.862;19.378;2023-04-03T04:46:23;8.90;;;3.60;;
58784;SDS011;44557;51.862;19.378;2023-04-03T04:48:24;11.70;;;4.10;;
58784;SDS011;44557;51.862;19.378;2023-04-03T04:50:25;7.80;;;4.00;;
58784;SDS011;44557;51.862;19.378;2023-04-03T04:52:26;8.60;;;4.10;;
58784;SDS011;44557;51.862;19.378;2023-04-03T04:54:27;9.10;;;4.30;;
58784;SDS011;44557;51.862;19.378;2023-04-03T04:56:28;8.70;;;4.60;;
58784;SDS011;44557;51.862;19.378;2023-04-03T04:58:28;9.00;;;4.80;;
58784;SDS011;44557;51.862;19.378;2023-04-03T05:00:29;8.60;;;4.40;;
58784;SDS011;44557;51.862;19.378;2023-04-03T05:02:30;8.90;;;4.70;;
58784;SDS011;44557;51.862;19.378;2023-04-03T05:04:31;7.90;;;4.10;;
58784;SDS011;44557;51.862;19.378;2023-04-03T05:06:33;11.00;;;5.30;;
58784;SDS011;44557;51.862;19.378;2023-04-03T05:08:35;8.20;;;4.70;;
58784;SDS011;44557;51.862;19.378;2023-04-03T05:10:36;9.70;;;4.50;;
58784;SDS011;44557;51.862;19.378;2023-04-03T05:12:37;10.60;;;4.90;;
58784;SDS011;44557;51.862;19.378;2023-04-03T05:14:38;9.80;;;4.60;;
58784;SDS011;44557;51.862;19.378;2023-04-03T05:16:39;9.60;;;5.10;;
58784;SDS011;44557;51.862;19.378;2023-04-03T05:18:39;10.10;;;4.70;;
58784;SDS011;44557;51.862;19.378;2023-04-03T05:20:40;9.50;;;4.70;;
58784;SDS011;44557;51.862;19.378;2023-04-03T05:22:41;8.20;;;4.20;;
58784;SDS011;44557;51.862;19.378;2023-04-03T05:24:42;9.40;;;4.00;;
58784;SDS011;44557;51.862;19.378;2023-04-03T05:26:43;8.60;;;4.20;;
58784;SDS011;44557;51.862;19.378;2023-04-03T05:28:44;10.60;;;4.90;;
58784;SDS011;44557;51.862;19.378;2023-04-03T05:30:45;8.80;;;4.90;;
58784;SDS011;44557;51.862;19.378;2023-04-03T05:32:54;11.00;;;4.90;;
58784;SDS011;44557;51.862;19.378;2023-04-03T05:34:56;10.30;;;4.60;;
58784;SDS011;44557;51.862;19.378;2023-04-03T05:36:56;10.90;;;5.50;;
58784;SDS011;44557;51.862;19.378;2023-04-03T05:38:57;9.70;;;5.10;;
58784;SDS011;44557;51.862;19.378;2023-04-03T05:40:58;9.50;;;4.60;;
58784;SDS011;44557;51.862;19.378;2023-04-03T05:42:59;9.80;;;4.70;;
58784;SDS011;44557;51.862;19.378;2023-04-03T05:45:00;9.80;;;4.60;;
58784;SDS011;44557;51.862;19.378;2023-04-03T05:47:01;9.30;;;4.40;;
58784;SDS011;44557;51.862;19.378;2023-04-03T05:49:03;8.70;;;4.10;;
58784;SDS011;44557;51.862;19.378;2023-04-03T05:51:04;7.20;;;3.60;;
58784;SDS011;44557;51.862;19.378;2023-04-03T05:53:06;8.40;;;3.40;;
58784;SDS011;44557;51.862;19.378;2023-04-03T05:55:12;8.00;;;3.70;;
58784;SDS011;44557;51.862;19.378;2023-04-03T05:57:13;7.80;;;3.40;;
58784;SDS011;44557;51.862;19.378;2023-04-03T05:59:14;6.90;;;3.00;;
58784;SDS011;44557;51.862;19.378;2023-04-03T06:01:15;7.10;;;3.20;;
58784;SDS011;44557;51.862;19.378;2023-04-03T06:03:16;6.80;;;3.50;;
58784;SDS011;44557;51.862;19.378;2023-04-03T06:05:17;8.80;;;3.70;;
58784;SDS011;44557;51.862;19.378;2023-04-03T06:07:19;6.50;;;2.90;;
58784;SDS011;44557;51.862;19.378;2023-04-03T06:09:24;6.60;;;3.00;;
58784;SDS011;44557;51.862;19.378;2023-04-03T06:11:27;7.70;;;3.30;;
58784;SDS011;44557;51.862;19.378;2023-04-03T06:13:27;6.80;;;3.00;;
58784;SDS011;44557;51.862;19.378;2023-04-03T06:15:29;5.70;;;2.60;;
58784;SDS011;44557;51.862;19.378;2023-04-03T06:17:29;6.80;;;2.90;;
58784;SDS011;44557;51.862;19.378;2023-04-03T06:19:30;8.00;;;3.20;;
58784;SDS011;44557;51.862;19.378;2023-04-03T06:21:31;5.40;;;2.90;;
58784;SDS011;44557;51.862;19.378;2023-04-03T06:23:32;7.10;;;2.80;;
58784;SDS011;44557;51.862;19.378;2023-04-03T06:25:33;7.50;;;2.80;;
58784;SDS011;44557;51.862;19.378;2023-04-03T06:27:34;5.30;;;2.80;;
58784;SDS011;44557;51.862;19.378;2023-04-03T06:29:35;4.70;;;2.60;;
58784;SDS011;44557;51.862;19.378;2023-04-03T06:31:36;5.40;;;2.50;;
58784;SDS011;44557;51.862;19.378;2023-04-03T06:33:37;6.00;;;2.70;;
58784;SDS011;44557;51.862;19.378;2023-04-03T06:35:38;8.50;;;2.80;;
58784;SDS011;44557;51.862;19.378;2023-04-03T06:37:39;6.60;;;2.40;;
58784;SDS011;44557;51.862;19.378;2023-04-03T06:39:39;6.10;;;2.50;;
58784;SDS011;44557;51.862;19.378;2023-04-03T06:41:41;6.50;;;2.70;;
58784;SDS011;44557;51.862;19.378;2023-04-03T06:43:42;5.00;;;2.10;;
58784;SDS011;44557;51.862;19.378;2023-04-03T06:45:44;6.20;;;2.30;;
58784;SDS011;44557;51.862;19.378;2023-04-03T06:47:45;4.80;;;2.10;;
58784;SDS011;44557;51.862;19.378;2023-04-03T06:49:46;6.60;;;2.40;;
58784;SDS011;44557;51.862;19.378;2023-04-03T06:51:47;6.90;;;2.40;;
58784;SDS011;44557;51.862;19.378;2023-04-03T06:53:48;5.50;;;2.70;;
58784;SDS011;44557;51.862;19.378;2023-04-03T06:55:50;5.10;;;2.20;;
58784;SDS011;44557;51.862;19.378;2023-04-03T06:57:51;6.20;;;2.50;;
58784;SDS011;44557;51.862;19.378;2023-04-03T06:59:52;5.00;;;2.50;;
58784;SDS011;44557;51.862;19.378;2023-04-03T07:01:53;6.90;;;2.30;;
58784;SDS011;44557;51.862;19.378;2023-04-03T07:03:54;5.30;;;2.10;;
58784;SDS011;44557;51.862;19.378;2023-04-03T07:05:56;4.30;;;2.00;;
58784;SDS011;44557;51.862;19.378;2023-04-03T07:07:56;5.40;;;2.50;;
58784;SDS011;44557;51.862;19.378;2023-04-03T07:09:57;4.90;;;2.10;;
58784;SDS011;44557;51.862;19.378;2023-04-03T07:11:58;5.20;;;2.20;;
58784;SDS011;44557;51.862;19.378;2023-04-03T07:13:59;5.20;;;2.10;;
58784;SDS011;44557;51.862;19.378;2023-04-03T07:16:00;4.40;;;2.20;;
58784;SDS011;44557;51.862;19.378;2023-04-03T07:18:01;7.50;;;3.20;;
58784;SDS011;44557;51.862;19.378;2023-04-03T07:20:03;6.00;;;2.60;;
58784;SDS011;44557;51.862;19.378;2023-04-03T07:22:04;5.00;;;2.10;;
58784;SDS011;44557;51.862;19.378;2023-04-03T07:24:05;10.20;;;2.50;;
58784;SDS011;44557;51.862;19.378;2023-04-03T07:26:06;5.50;;;2.00;;
58784;SDS011;44557;51.862;19.378;2023-04-03T07:28:08;5.00;;;2.40;;
58784;SDS011;44557;51.862;19.378;2023-04-03T07:30:09;6.80;;;2.40;;
58784;SDS011;44557;51.862;19.378;2023-04-03T07:32:10;5.30;;;2.10;;
58784;SDS011;44557;51.862;19.378;2023-04-03T07:34:11;6.90;;;2.00;;
58784;SDS011;44557;51.862;19.378;2023-04-03T07:36:16;5.80;;;2.20;;
58784;SDS011;44557;51.862;19.378;2023-04-03T07:38:19;6.00;;;2.10;;
58784;SDS011;44557;51.862;19.378;2023-04-03T07:40:20;7.00;;;2.30;;
58784;SDS011;44557;51.862;19.378;2023-04-03T07:42:21;4.80;;;2.30;;
58784;SDS011;44557;51.862;19.378;2023-04-03T07:44:22;5.40;;;2.20;;
58784;SDS011;44557;51.862;19.378;2023-04-03T07:46:23;6.20;;;2.00;;
58784;SDS011;44557;51.862;19.378;2023-04-03T07:48:25;4.30;;;2.30;;
58784;SDS011;44557;51.862;19.378;2023-04-03T07:50:27;5.00;;;2.20;;
58784;SDS011;44557;51.862;19.378;2023-04-03T07:52:27;5.00;;;2.10;;
58784;SDS011;44557;51.862;19.378;2023-04-03T07:54:28;4.80;;;2.20;;
58784;SDS011;44557;51.862;19.378;2023-04-03T07:56:29;6.60;;;2.70;;
58784;SDS011;44557;51.862;19.378;2023-04-03T07:58:30;5.40;;;2.50;;
58784;SDS011;44557;51.862;19.378;2023-04-03T08:00:31;7.60;;;2.60;;
58784;SDS011;44557;51.862;19.378;2023-04-03T08:02:32;5.40;;;2.70;;
58784;SDS011;44557;51.862;19.378;2023-04-03T08:04:33;7.50;;;3.00;;
58784;SDS011;44557;51.862;19.378;2023-04-03T08:06:33;6.80;;;2.70;;
58784;SDS011;44557;51.862;19.378;2023-04-03T08:08:36;4.70;;;2.10;;
58784;SDS011;44557;51.862;19.378;2023-04-03T08:10:37;6.10;;;2.20;;
58784;SDS011;44557;51.862;19.378;2023-04-03T08:12:39;5.60;;;2.50;;
58784;SDS011;44557;51.862;19.378;2023-04-03T08:14:40;8.20;;;3.00;;
58784;SDS011;44557;51.862;19.378;2023-04-03T08:16:41;7.40;;;2.60;;
58784;SDS011;44557;51.862;19.378;2023-04-03T08:18:45;5.50;;;2.10;;
58784;SDS011;44557;51.862;19.378;2023-04-03T08:20:46;6.80;;;2.70;;
58784;SDS011;44557;51.862;19.378;2023-04-03T08:22:47;7.70;;;3.20;;
58784;SDS011;44557;51.862;19.378;2023-04-03T08:24:48;6.00;;;2.30;;
58784;SDS011;44557;51.862;19.378;2023-04-03T08:26:49;7.10;;;2.10;;
58784;SDS011;44557;51.862;19.378;2023-04-03T08:28:50;6.90;;;2.40;;
58784;SDS011;44557;51.862;19.378;2023-04-03T08:30:51;6.00;;;2.20;;
58784;SDS011;44557;51.862;19.378;2023-04-03T08:32:52;7.90;;;2.60;;
58784;SDS011;44557;51.862;19.378;2023-04-03T08:34:52;7.90;;;2.60;;
58784;SDS011;44557;51.862;19.378;2023-04-03T08:36:53;7.10;;;2.80;;
58784;SDS011;44557;51.862;19.378;2023-04-03T08:38:55;4.80;;;2.10;;
58784;SDS011;44557;51.862;19.378;2023-04-03T08:41:40;6.20;;;2.50;;
58784;SDS011;44557;51.862;19.378;2023-04-03T08:43:53;5.10;;;2.10;;
58784;SDS011;44557;51.862;19.378;2023-04-03T08:45:59;6.30;;;3.00;;
58784;SDS011;44557;51.862;19.378;2023-04-03T08:48:50;4.80;;;2.00;;
58784;SDS011;44557;51.862;19.378;2023-04-03T08:50:34;7.60;;;2.60;;
58784;SDS011;44557;51.862;19.378;2023-04-03T08:52:40;4.50;;;2.00;;
58784;SDS011;44557;51.862;19.378;2023-04-03T08:54:49;5.30;;;2.00;;
58784;SDS011;44557;51.862;19.378;2023-04-03T08:56:53;5.20;;;2.30;;
58784;SDS011;44557;51.862;19.378;2023-04-03T08:58:56;5.30;;;1.90;;
58784;SDS011;44557;51.862;19.378;2023-04-03T09:03:16;6.90;;;2.30;;
58784;SDS011;44557;51.862;19.378;2023-04-03T09:08:11;5.40;;;2.10;;
58784;SDS011;44557;51.862;19.378;2023-04-03T09:10:15;4.10;;;2.20;;
58784;SDS011;44557;51.862;19.378;2023-04-03T09:12:28;5.60;;;2.00;;
58784;SDS011;44557;51.862;19.378;2023-04-03T09:15:38;7.10;;;2.40;;
58784;SDS011;44557;51.862;19.378;2023-04-03T09:19:41;6.70;;;2.00;;
58784;SDS011;44557;51.862;19.378;2023-04-03T09:21:52;6.30;;;2.40;;
58784;SDS011;44557;51.862;19.378;2023-04-03T09:23:56;4.60;;;1.90;;
58784;SDS011;44557;51.862;19.378;2023-04-03T09:26:01;9.10;;;2.20;;
58784;SDS011;44557;51.862;19.378;2023-04-03T09:28:06;4.80;;;2.10;;
58784;SDS011;44557;51.862;19.378;2023-04-03T09:30:13;5.30;;;2.10;;
58784;SDS011;44557;51.862;19.378;2023-04-03T09:32:26;7.30;;;2.10;;
58784;SDS011;44557;51.862;19.378;2023-04-03T09:34:37;5.60;;;1.70;;
58784;SDS011;44557;51.862;19.378;2023-04-03T09:36:46;5.90;;;2.40;;
58784;SDS011;44557;51.862;19.378;2023-04-03T09:39:02;7.50;;;2.60;;
58784;SDS011;44557;51.862;19.378;2023-04-03T09:41:07;6.40;;;2.60;;
58784;SDS011;44557;51.862;19.378;2023-04-03T09:45:39;5.40;;;2.30;;
58784;SDS011;44557;51.862;19.378;2023-04-03T09:47:40;4.70;;;2.20;;
58784;SDS011;44557;51.862;19.378;2023-04-03T09:49:42;6.30;;;2.60;;
58784;SDS011;44557;51.862;19.378;2023-04-03T09:51:43;4.80;;;2.10;;
58784;SDS011;44557;51.862;19.378;2023-04-03T09:53:45;4.20;;;1.80;;
58784;SDS011;44557;51.862;19.378;2023-04-03T09:55:46;5.10;;;2.10;;
58784;SDS011;44557;51.862;19.378;2023-04-03T09:57:48;5.50;;;2.20;;
58784;SDS011;44557;51.862;19.378;2023-04-03T09:59:57;3.80;;;1.90;;
58784;SDS011;44557;51.862;19.378;2023-04-03T10:02:04;6.50;;;2.20;;
58784;SDS011;44557;51.862;19.378;2023-04-03T10:04:23;5.10;;;2.10;;
58784;SDS011;44557;51.862;19.378;2023-04-03T10:06:24;8.30;;;2.40;;
58784;SDS011;44557;51.862;19.378;2023-04-03T10:08:31;5.20;;;2.10;;
58784;SDS011;44557;51.862;19.378;2023-04-03T10:12:36;5.00;;;2.10;;
58784;SDS011;44557;51.862;19.378;2023-04-03T10:14:38;6.80;;;2.70;;
58784;SDS011;44557;51.862;19.378;2023-04-03T10:16:41;5.90;;;2.30;;
58784;SDS011;44557;51.862;19.378;2023-04-03T10:23:46;3.00;;;1.60;;
58784;SDS011;44557;51.862;19.378;2023-04-03T10:28:20;4.60;;;1.90;;
58784;SDS011;44557;51.862;19.378;2023-04-03T10:32:57;3.70;;;1.60;;
58784;SDS011;44557;51.862;19.378;2023-04-03T10:35:10;3.50;;;1.60;;
58784;SDS011;44557;51.862;19.378;2023-04-03T10:37:21;4.60;;;1.90;;
58784;SDS011;44557;51.862;19.378;2023-04-03T10:46:41;5.30;;;2.00;;
58784;SDS011;44557;51.862;19.378;2023-04-03T10:51:35;6.00;;;2.20;;
58784;SDS011;44557;51.862;19.378;2023-04-03T10:54:20;4.70;;;1.60;;
58784;SDS011;44557;51.862;19.378;2023-04-03T10:58:43;5.50;;;2.40;;
58784;SDS011;44557;51.862;19.378;2023-04-03T11:00:49;5.70;;;2.00;;
58784;SDS011;44557;51.862;19.378;2023-04-03T11:02:56;4.30;;;1.70;;
58784;SDS011;44557;51.862;19.378;2023-04-03T11:05:26;3.70;;;1.50;;
58784;SDS011;44557;51.862;19.378;2023-04-03T11:07:33;4.00;;;1.50;;
58784;SDS011;44557;51.862;19.378;2023-04-03T11:09:40;4.20;;;1.90;;
58784;SDS011;44557;51.862;19.378;2023-04-03T11:11:44;4.60;;;2.30;;
58784;SDS011;44557;51.862;19.378;2023-04-03T11:15:59;4.20;;;1.80;;
58784;SDS011;44557;51.862;19.378;2023-04-03T11:18:11;4.30;;;1.90;;
58784;SDS011;44557;51.862;19.378;2023-04-03T11:20:18;4.20;;;2.00;;
58784;SDS011;44557;51.862;19.378;2023-04-03T11:22:36;5.60;;;1.90;;
58784;SDS011;44557;51.862;19.378;2023-04-03T11:24:42;5.00;;;1.90;;
58784;SDS011;44557;51.862;19.378;2023-04-03T11:26:46;4.30;;;1.80;;
58784;SDS011;44557;51.862;19.378;2023-04-03T11:28:58;4.50;;;1.80;;
58784;SDS011;44557;51.862;19.378;2023-04-03T11:33:18;6.40;;;2.60;;
58784;SDS011;44557;51.862;19.378;2023-04-03T11:35:25;4.70;;;2.10;;
58784;SDS011;44557;51.862;19.378;2023-04-03T11:37:35;5.00;;;2.00;;
58784;SDS011;44557;51.862;19.378;2023-04-03T11:39:45;5.30;;;2.10;;
58784;SDS011;44557;51.862;19.378;2023-04-03T11:41:51;4.50;;;2.00;;
58784;SDS011;44557;51.862;19.378;2023-04-03T11:43:57;5.70;;;2.30;;
58784;SDS011;44557;51.862;19.378;2023-04-03T11:46:07;4.20;;;1.90;;
58784;SDS011;44557;51.862;19.378;2023-04-03T11:54:46;4.60;;;2.00;;
58784;SDS011;44557;51.862;19.378;2023-04-03T11:56:48;10.00;;;4.70;;
58784;SDS011;44557;51.862;19.378;2023-04-03T11:59:15;5.40;;;2.30;;
58784;SDS011;44557;51.862;19.378;2023-04-03T12:01:23;7.80;;;3.00;;
58784;SDS011;44557;51.862;19.378;2023-04-03T12:08:25;4.00;;;1.90;;
58784;SDS011;44557;51.862;19.378;2023-04-03T12:10:27;4.20;;;1.90;;
58784;SDS011;44557;51.862;19.378;2023-04-03T12:12:29;3.60;;;1.60;;
58784;SDS011;44557;51.862;19.378;2023-04-03T12:14:32;4.00;;;1.60;;
58784;SDS011;44557;51.862;19.378;2023-04-03T12:18:41;4.60;;;2.10;;
58784;SDS011;44557;51.862;19.378;2023-04-03T12:20:55;3.80;;;1.70;;
58784;SDS011;44557;51.862;19.378;2023-04-03T12:25:48;3.20;;;1.60;;
58784;SDS011;44557;51.862;19.378;2023-04-03T12:27:50;4.40;;;2.10;;
58784;SDS011;44557;51.862;19.378;2023-04-03T12:30:00;4.30;;;2.10;;
58784;SDS011;44557;51.862;19.378;2023-04-03T12:37:00;6.10;;;2.20;;
58784;SDS011;44557;51.862;19.378;2023-04-03T12:39:13;3.20;;;1.70;;
58784;SDS011;44557;51.862;19.378;2023-04-03T12:41:45;3.40;;;1.60;;
58784;SDS011;44557;51.862;19.378;2023-04-03T12:46:11;4.60;;;2.10;;
58784;SDS011;44557;51.862;19.378;2023-04-03T12:48:17;3.80;;;1.90;;
58784;SDS011;44557;51.862;19.378;2023-04-03T12:50:29;6.30;;;2.50;;
58784;SDS011;44557;51.862;19.378;2023-04-03T12:52:44;5.10;;;2.20;;
58784;SDS011;44557;51.862;19.378;2023-04-03T12:54:48;4.20;;;2.00;;
58784;SDS011;44557;51.862;19.378;2023-04-03T12:56:50;5.60;;;2.80;;
58784;SDS011;44557;51.862;19.378;2023-04-03T12:58:52;4.40;;;2.20;;
58784;SDS011;44557;51.862;19.378;2023-04-03T13:01:09;4.30;;;2.20;;
58784;SDS011;44557;51.862;19.378;2023-04-03T13:03:30;3.70;;;2.00;;
58784;SDS011;44557;51.862;19.378;2023-04-03T13:05:31;3.50;;;2.00;;
58784;SDS011;44557;51.862;19.378;2023-04-03T13:07:34;4.00;;;2.20;;
58784;SDS011;44557;51.862;19.378;2023-04-03T13:09:39;4.50;;;2.20;;
58784;SDS011;44557;51.862;19.378;2023-04-03T13:11:40;5.60;;;2.50;;
58784;SDS011;44557;51.862;19.378;2023-04-03T13:14:03;5.00;;;2.30;;
58784;SDS011;44557;51.862;19.378;2023-04-03T13:16:16;3.40;;;2.10;;